sensor_id;sensor_type;location;lat;lon;timestamp;pressure;altitude;pressure_sealevel;temperature;humidity
25420;BME280;13354;48.174;11.566;2023-09-19T00:00:43;95401.22;;;18.37;71.28
25420;BME280;13354;48.174;11.566;2023-09-19T00:03:09;95400.34;;;18.31;71.24
25420;BME280;13354;48.174;11.566;2023-09-19T00:05:36;95404.38;;;18.33;70.86
25420;BME280;13354;48.174;11.566;2023-09-19T00:08:04;95401.09;;;18.26;71.22
25420;BME280;13354;48.174;11.566;2023-09-19T00:10:32;95395.47;;;18.28;70.72
25420;BME280;13354;48.174;11.566;2023-09-19T00:13:00;95396.34;;;18.55;70.19
25420;BME280;13354;48.174;11.566;2023-09-19T00:15:26;95396.34;;;18.55;70.14
25420;BME280;13354;48.174;11.566;2023-09-19T00:17:56;95400.41;;;18.36;69.73
25420;BME280;13354;48.174;11.566;2023-09-19T00:20:22;95400.06;;;18.49;69.12
25420;BME280;13354;48.174;11.566;2023-09-19T00:22:49;95405.72;;;18.53;68.83
25420;BME280;13354;48.174;11.566;2023-09-19T00:25:19;95408.16;;;18.54;68.49
25420;BME280;13354;48.174;11.566;2023-09-19T00:27:45;95409.75;;;18.55;68.41
25420;BME280;13354;48.174;11.566;2023-09-19T00:30:13;95411.09;;;18.53;68.32
25420;BME280;13354;48.174;11.566;2023-09-19T00:32:44;95406.03;;;18.56;68.15
25420;BME280;13354;48.174;11.566;2023-09-19T00:35:12;95415.53;;;18.64;68.02
25420;BME280;13354;48.174;11.566;2023-09-19T00:37:38;95422.50;;;18.65;67.76
25420;BME280;13354;48.174;11.566;2023-09-19T00:40:06;95417.41;;;18.64;67.86
25420;BME280;13354;48.174;11.566;2023-09-19T00:42:32;95419.06;;;18.70;67.92
25420;BME280;13354;48.174;11.566;2023-09-19T00:44:58;95419.00;;;18.65;68.32
25420;BME280;13354;48.174;11.566;2023-09-19T00:47:24;95423.06;;;18.67;68.11
25420;BME280;13354;48.174;11.566;2023-09-19T00:49:50;95424.38;;;18.65;68.10
25420;BME280;13354;48.174;11.566;2023-09-19T00:52:17;95423.09;;;18.50;68.58
25420;BME280;13354;48.174;11.566;2023-09-19T00:54:47;95431.53;;;18.59;69.10
25420;BME280;13354;48.174;11.566;2023-09-19T00:57:13;95428.47;;;18.50;69.33
25420;BME280;13354;48.174;11.566;2023-09-19T00:59:54;95440.19;;;18.66;69.15
25420;BME280;13354;48.174;11.566;2023-09-19T01:02:21;95435.22;;;18.53;69.42
25420;BME280;13354;48.174;11.566;2023-09-19T01:04:47;95444.19;;;18.42;70.03
25420;BME280;13354;48.174;11.566;2023-09-19T01:07:12;95438.81;;;18.42;70.47
25420;BME280;13354;48.174;11.566;2023-09-19T01:09:40;95435.34;;;18.63;69.85
25420;BME280;13354;48.174;11.566;2023-09-19T01:12:06;95443.25;;;18.53;70.03
25420;BME280;13354;48.174;11.566;2023-09-19T01:14:55;95447.56;;;18.37;71.04
25420;BME280;13354;48.174;11.566;2023-09-19T01:17:32;95446.84;;;18.42;70.75
25420;BME280;13354;48.174;11.566;2023-09-19T01:22:48;95452.81;;;18.66;70.14
25420;BME280;13354;48.174;11.566;2023-09-19T01:28:23;95458.28;;;18.54;70.73
25420;BME280;13354;48.174;11.566;2023-09-19T01:30:56;95465.41;;;18.48;71.30
25420;BME280;13354;48.174;11.566;2023-09-19T01:33:24;95469.47;;;18.51;70.91
25420;BME280;13354;48.174;11.566;2023-09-19T01:35:49;95468.31;;;18.42;71.20
25420;BME280;13354;48.174;11.566;2023-09-19T01:38:15;95474.06;;;18.33;71.91
25420;BME280;13354;48.174;11.566;2023-09-19T01:40:42;95463.03;;;18.30;72.06
25420;BME280;13354;48.174;11.566;2023-09-19T01:43:14;95465.31;;;18.21;72.40
25420;BME280;13354;48.174;11.566;2023-09-19T01:46:35;95469.03;;;18.20;72.87
25420;BME280;13354;48.174;11.566;2023-09-19T01:49:15;95472.28;;;18.22;72.68
25420;BME280;13354;48.174;11.566;2023-09-19T01:54:12;95485.44;;;18.24;72.31
25420;BME280;13354;48.174;11.566;2023-09-19T01:59:52;95469.94;;;18.09;72.80
25420;BME280;13354;48.174;11.566;2023-09-19T02:02:21;95467.91;;;17.99;73.23
25420;BME280;13354;48.174;11.566;2023-09-19T02:04:48;95475.69;;;18.18;72.85
25420;BME280;13354;48.174;11.566;2023-09-19T02:07:14;95475.16;;;18.16;72.38
25420;BME280;13354;48.174;11.566;2023-09-19T02:09:40;95479.06;;;18.08;72.69
25420;BME280;13354;48.174;11.566;2023-09-19T02:12:08;95476.91;;;18.10;72.49
25420;BME280;13354;48.174;11.566;2023-09-19T02:14:34;95470.91;;;18.03;72.38
25420;BME280;13354;48.174;11.566;2023-09-19T02:17:01;95473.19;;;18.11;72.22
25420;BME280;13354;48.174;11.566;2023-09-19T02:19:27;95473.19;;;17.94;72.42
25420;BME280;13354;48.174;11.566;2023-09-19T02:21:53;95466.44;;;17.92;72.95
25420;BME280;13354;48.174;11.566;2023-09-19T02:24:18;95471.16;;;18.01;72.43
25420;BME280;13354;48.174;11.566;2023-09-19T02:26:44;95473.28;;;18.16;72.25
25420;BME280;13354;48.174;11.566;2023-09-19T02:29:09;95473.91;;;18.06;72.10
25420;BME280;13354;48.174;11.566;2023-09-19T02:31:38;95472.78;;;18.19;71.69
25420;BME280;13354;48.174;11.566;2023-09-19T02:34:03;95475.69;;;18.18;71.74
25420;BME280;13354;48.174;11.566;2023-09-19T02:36:31;95472.69;;;18.14;71.90
25420;BME280;13354;48.174;11.566;2023-09-19T02:38:57;95478.53;;;18.11;72.02
25420;BME280;13354;48.174;11.566;2023-09-19T02:41:22;95472.19;;;18.00;72.45
25420;BME280;13354;48.174;11.566;2023-09-19T02:43:47;95487.09;;;18.08;72.38
25420;BME280;13354;48.174;11.566;2023-09-19T02:46:13;95488.78;;;17.97;72.62
25420;BME280;13354;48.174;11.566;2023-09-19T02:48:38;95488.94;;;17.91;73.08
25420;BME280;13354;48.174;11.566;2023-09-19T02:51:04;95479.75;;;18.03;72.78
25420;BME280;13354;48.174;11.566;2023-09-19T02:53:30;95484.88;;;18.05;72.53
25420;BME280;13354;48.174;11.566;2023-09-19T02:55:57;95479.19;;;18.01;72.52
25420;BME280;13354;48.174;11.566;2023-09-19T02:58:22;95480.75;;;17.97;72.61
25420;BME280;13354;48.174;11.566;2023-09-19T03:00:48;95491.69;;;17.96;72.76
25420;BME280;13354;48.174;11.566;2023-09-19T03:03:17;95493.72;;;17.89;73.12
25420;BME280;13354;48.174;11.566;2023-09-19T03:05:42;95490.81;;;17.90;73.14
25420;BME280;13354;48.174;11.566;2023-09-19T03:08:13;95487.41;;;17.95;72.94
25420;BME280;13354;48.174;11.566;2023-09-19T03:10:40;95485.78;;;17.94;73.25
25420;BME280;13354;48.174;11.566;2023-09-19T03:13:06;95487.22;;;17.84;73.38
25420;BME280;13354;48.174;11.566;2023-09-19T03:15:32;95483.66;;;17.79;73.59
25420;BME280;13354;48.174;11.566;2023-09-19T03:17:58;95483.88;;;17.77;73.80
25420;BME280;13354;48.174;11.566;2023-09-19T03:20:24;95492.34;;;17.86;73.44
25420;BME280;13354;48.174;11.566;2023-09-19T03:22:50;95491.34;;;17.75;73.93
25420;BME280;13354;48.174;11.566;2023-09-19T03:25:16;95490.16;;;17.83;73.53
25420;BME280;13354;48.174;11.566;2023-09-19T03:27:42;95486.44;;;17.72;73.56
25420;BME280;13354;48.174;11.566;2023-09-19T03:30:07;95492.34;;;17.74;73.44
25420;BME280;13354;48.174;11.566;2023-09-19T03:32:48;95493.31;;;17.80;73.12
25420;BME280;13354;48.174;11.566;2023-09-19T03:35:15;95493.03;;;17.81;73.18
25420;BME280;13354;48.174;11.566;2023-09-19T03:37:41;95484.31;;;17.74;73.18
25420;BME280;13354;48.174;11.566;2023-09-19T03:40:08;95496.31;;;17.83;72.85
25420;BME280;13354;48.174;11.566;2023-09-19T03:42:38;95496.72;;;17.75;73.12
25420;BME280;13354;48.174;11.566;2023-09-19T03:45:03;95499.22;;;17.82;73.08
25420;BME280;13354;48.174;11.566;2023-09-19T03:47:29;95503.38;;;17.90;72.53
25420;BME280;13354;48.174;11.566;2023-09-19T03:49:54;95501.34;;;17.80;73.01
25420;BME280;13354;48.174;11.566;2023-09-19T03:52:19;95503.13;;;17.91;72.49
25420;BME280;13354;48.174;11.566;2023-09-19T03:54:44;95504.00;;;17.80;73.14
25420;BME280;13354;48.174;11.566;2023-09-19T03:57:10;95513.03;;;17.91;72.72
25420;BME280;13354;48.174;11.566;2023-09-19T03:59:35;95515.44;;;17.75;73.30
25420;BME280;13354;48.174;11.566;2023-09-19T04:02:01;95511.16;;;17.91;72.67
25420;BME280;13354;48.174;11.566;2023-09-19T04:04:27;95507.25;;;17.82;72.93
25420;BME280;13354;48.174;11.566;2023-09-19T04:06:54;95511.09;;;17.74;73.15
25420;BME280;13354;48.174;11.566;2023-09-19T04:09:19;95510.09;;;17.92;72.73
25420;BME280;13354;48.174;11.566;2023-09-19T04:11:45;95513.09;;;17.79;72.97
25420;BME280;13354;48.174;11.566;2023-09-19T04:14:10;95516.13;;;17.82;73.14
25420;BME280;13354;48.174;11.566;2023-09-19T04:16:35;95518.06;;;17.87;72.70
25420;BME280;13354;48.174;11.566;2023-09-19T04:19:01;95512.72;;;17.87;73.06
25420;BME280;13354;48.174;11.566;2023-09-19T04:21:27;95519.06;;;17.69;73.52
25420;BME280;13354;48.174;11.566;2023-09-19T04:23:53;95529.50;;;17.71;73.18
25420;BME280;13354;48.174;11.566;2023-09-19T04:26:18;95524.97;;;17.83;73.21
25420;BME280;13354;48.174;11.566;2023-09-19T04:28:44;95529.84;;;17.74;73.20
25420;BME280;13354;48.174;11.566;2023-09-19T04:31:09;95533.00;;;17.83;73.32
25420;BME280;13354;48.174;11.566;2023-09-19T04:33:35;95536.94;;;17.80;72.95
25420;BME280;13354;48.174;11.566;2023-09-19T04:36:01;95539.66;;;17.69;73.31
25420;BME280;13354;48.174;11.566;2023-09-19T04:38:28;95540.94;;;17.66;73.36
25420;BME280;13354;48.174;11.566;2023-09-19T04:40:57;95542.16;;;17.58;73.80
25420;BME280;13354;48.174;11.566;2023-09-19T04:43:24;95554.25;;;17.61;73.78
25420;BME280;13354;48.174;11.566;2023-09-19T04:45:49;95547.34;;;17.65;73.87
25420;BME280;13354;48.174;11.566;2023-09-19T04:48:16;95556.53;;;17.69;73.88
25420;BME280;13354;48.174;11.566;2023-09-19T04:50:41;95559.22;;;17.69;73.27
25420;BME280;13354;48.174;11.566;2023-09-19T04:53:06;95567.81;;;17.71;73.64
25420;BME280;13354;48.174;11.566;2023-09-19T04:55:32;95562.94;;;17.68;73.12
25420;BME280;13354;48.174;11.566;2023-09-19T04:57:58;95569.56;;;17.77;73.05
25420;BME280;13354;48.174;11.566;2023-09-19T05:00:23;95571.97;;;17.91;72.55
25420;BME280;13354;48.174;11.566;2023-09-19T05:02:56;95571.88;;;17.74;73.06
25420;BME280;13354;48.174;11.566;2023-09-19T05:05:22;95573.63;;;17.80;72.79
25420;BME280;13354;48.174;11.566;2023-09-19T05:07:49;95575.84;;;17.83;72.76
25420;BME280;13354;48.174;11.566;2023-09-19T05:10:14;95578.88;;;17.75;73.13
25420;BME280;13354;48.174;11.566;2023-09-19T05:12:41;95592.28;;;17.63;73.59
25420;BME280;13354;48.174;11.566;2023-09-19T05:15:07;95591.34;;;17.69;73.37
25420;BME280;13354;48.174;11.566;2023-09-19T05:17:34;95595.06;;;17.80;72.70
25420;BME280;13354;48.174;11.566;2023-09-19T05:20:00;95602.84;;;17.70;73.08
25420;BME280;13354;48.174;11.566;2023-09-19T05:22:36;95599.63;;;17.68;73.18
25420;BME280;13354;48.174;11.566;2023-09-19T05:25:05;95597.63;;;17.75;73.34
25420;BME280;13354;48.174;11.566;2023-09-19T05:27:30;95609.34;;;17.85;72.75
25420;BME280;13354;48.174;11.566;2023-09-19T05:29:56;95607.38;;;17.81;72.74
25420;BME280;13354;48.174;11.566;2023-09-19T05:32:21;95603.97;;;17.85;72.84
25420;BME280;13354;48.174;11.566;2023-09-19T05:34:47;95610.19;;;17.86;72.65
25420;BME280;13354;48.174;11.566;2023-09-19T05:37:13;95612.41;;;17.77;72.79
25420;BME280;13354;48.174;11.566;2023-09-19T05:39:41;95613.31;;;17.83;72.23
25420;BME280;13354;48.174;11.566;2023-09-19T05:42:06;95613.41;;;17.88;72.26
25420;BME280;13354;48.174;11.566;2023-09-19T05:44:33;95627.66;;;17.77;72.37
25420;BME280;13354;48.174;11.566;2023-09-19T05:46:58;95619.03;;;17.75;72.26
25420;BME280;13354;48.174;11.566;2023-09-19T05:49:24;95626.13;;;17.69;72.46
25420;BME280;13354;48.174;11.566;2023-09-19T05:51:50;95624.91;;;17.60;72.80
25420;BME280;13354;48.174;11.566;2023-09-19T05:54:19;95625.59;;;17.55;72.93
25420;BME280;13354;48.174;11.566;2023-09-19T05:56:45;95632.69;;;17.61;72.70
25420;BME280;13354;48.174;11.566;2023-09-19T05:59:12;95630.00;;;17.61;72.85
25420;BME280;13354;48.174;11.566;2023-09-19T06:01:39;95634.03;;;17.88;72.29
25420;BME280;13354;48.174;11.566;2023-09-19T06:04:04;95633.69;;;17.84;71.73
25420;BME280;13354;48.174;11.566;2023-09-19T06:06:29;95636.44;;;18.01;71.85
25420;BME280;13354;48.174;11.566;2023-09-19T06:08:55;95636.72;;;18.33;70.45
25420;BME280;13354;48.174;11.566;2023-09-19T06:11:20;95633.34;;;18.54;69.67
25420;BME280;13354;48.174;11.566;2023-09-19T06:13:46;95629.97;;;18.76;68.72
25420;BME280;13354;48.174;11.566;2023-09-19T06:16:16;95626.44;;;18.92;67.96
25420;BME280;13354;48.174;11.566;2023-09-19T06:18:44;95632.97;;;18.79;68.10
25420;BME280;13354;48.174;11.566;2023-09-19T06:21:10;95650.47;;;18.70;68.19
25420;BME280;13354;48.174;11.566;2023-09-19T06:23:36;95636.75;;;18.67;68.95
25420;BME280;13354;48.174;11.566;2023-09-19T06:26:01;95631.00;;;18.58;68.76
25420;BME280;13354;48.174;11.566;2023-09-19T06:28:27;95636.44;;;18.46;69.35
25420;BME280;13354;48.174;11.566;2023-09-19T06:30:54;95637.72;;;18.44;68.72
25420;BME280;13354;48.174;11.566;2023-09-19T06:33:20;95640.81;;;18.52;69.00
25420;BME280;13354;48.174;11.566;2023-09-19T06:35:47;95642.44;;;18.53;68.88
25420;BME280;13354;48.174;11.566;2023-09-19T06:38:13;95647.88;;;18.42;69.16
25420;BME280;13354;48.174;11.566;2023-09-19T06:40:40;95645.81;;;18.32;69.31
25420;BME280;13354;48.174;11.566;2023-09-19T06:43:09;95639.31;;;18.28;69.88
25420;BME280;13354;48.174;11.566;2023-09-19T06:45:35;95661.19;;;18.37;69.53
25420;BME280;13354;48.174;11.566;2023-09-19T06:48:00;95666.25;;;18.21;70.29
25420;BME280;13354;48.174;11.566;2023-09-19T06:50:27;95661.38;;;18.18;70.27
25420;BME280;13354;48.174;11.566;2023-09-19T06:52:54;95659.84;;;18.22;70.24
25420;BME280;13354;48.174;11.566;2023-09-19T06:55:21;95665.50;;;18.38;70.12
25420;BME280;13354;48.174;11.566;2023-09-19T06:57:49;95657.69;;;18.36;70.03
25420;BME280;13354;48.174;11.566;2023-09-19T07:00:15;95667.06;;;18.22;71.21
25420;BME280;13354;48.174;11.566;2023-09-19T07:02:59;95676.03;;;18.27;70.83
25420;BME280;13354;48.174;11.566;2023-09-19T07:05:33;95671.03;;;18.48;70.64
25420;BME280;13354;48.174;11.566;2023-09-19T07:08:01;95673.16;;;18.63;70.00
25420;BME280;13354;48.174;11.566;2023-09-19T07:10:27;95672.81;;;18.42;69.75
25420;BME280;13354;48.174;11.566;2023-09-19T07:13:11;95688.91;;;18.42;69.86
25420;BME280;13354;48.174;11.566;2023-09-19T07:15:38;95673.22;;;18.51;69.55
25420;BME280;13354;48.174;11.566;2023-09-19T07:18:15;95687.66;;;18.33;70.36
25420;BME280;13354;48.174;11.566;2023-09-19T07:20:42;95687.84;;;18.43;70.24
25420;BME280;13354;48.174;11.566;2023-09-19T07:23:15;95688.22;;;18.35;70.20
25420;BME280;13354;48.174;11.566;2023-09-19T07:25:41;95695.22;;;18.36;70.37
25420;BME280;13354;48.174;11.566;2023-09-19T07:28:06;95694.25;;;18.42;70.18
25420;BME280;13354;48.174;11.566;2023-09-19T07:30:32;95697.34;;;18.51;69.99
25420;BME280;13354;48.174;11.566;2023-09-19T07:32:57;95694.44;;;18.52;70.12
25420;BME280;13354;48.174;11.566;2023-09-19T07:35:22;95692.09;;;18.56;70.05
25420;BME280;13354;48.174;11.566;2023-09-19T07:37:49;95685.00;;;18.67;69.81
25420;BME280;13354;48.174;11.566;2023-09-19T07:40:15;95693.03;;;18.78;69.78
25420;BME280;13354;48.174;11.566;2023-09-19T07:42:41;95689.78;;;18.93;69.36
25420;BME280;13354;48.174;11.566;2023-09-19T07:45:07;95683.53;;;18.88;69.57
25420;BME280;13354;48.174;11.566;2023-09-19T07:47:33;95695.78;;;18.83;69.28
25420;BME280;13354;48.174;11.566;2023-09-19T07:49:59;95691.91;;;18.74;69.66
25420;BME280;13354;48.174;11.566;2023-09-19T07:52:27;95688.91;;;18.71;70.22
25420;BME280;13354;48.174;11.566;2023-09-19T07:54:53;95703.78;;;18.67;70.22
25420;BME280;13354;48.174;11.566;2023-09-19T07:57:18;95690.63;;;18.65;70.50
25420;BME280;13354;48.174;11.566;2023-09-19T07:59:45;95700.84;;;18.97;69.90
25420;BME280;13354;48.174;11.566;2023-09-19T08:02:10;95702.31;;;18.88;70.04
25420;BME280;13354;48.174;11.566;2023-09-19T08:04:42;95691.81;;;19.03;70.05
25420;BME280;13354;48.174;11.566;2023-09-19T08:07:08;95686.44;;;19.20;69.71
25420;BME280;13354;48.174;11.566;2023-09-19T08:09:33;95688.28;;;19.36;69.32
25420;BME280;13354;48.174;11.566;2023-09-19T08:11:59;95691.06;;;19.41;69.44
25420;BME280;13354;48.174;11.566;2023-09-19T08:14:27;95699.97;;;19.47;68.68
25420;BME280;13354;48.174;11.566;2023-09-19T08:16:57;95696.28;;;19.31;69.26
25420;BME280;13354;48.174;11.566;2023-09-19T08:19:22;95691.72;;;19.31;68.20
25420;BME280;13354;48.174;11.566;2023-09-19T08:21:48;95700.09;;;19.35;68.10
25420;BME280;13354;48.174;11.566;2023-09-19T08:24:13;95701.63;;;19.31;68.43
25420;BME280;13354;48.174;11.566;2023-09-19T08:26:40;95712.31;;;19.26;68.52
25420;BME280;13354;48.174;11.566;2023-09-19T08:29:05;95704.38;;;19.53;67.97
25420;BME280;13354;48.174;11.566;2023-09-19T08:31:33;95701.97;;;19.95;66.80
25420;BME280;13354;48.174;11.566;2023-09-19T08:33:58;95705.69;;;20.38;64.75
25420;BME280;13354;48.174;11.566;2023-09-19T08:36:24;95705.34;;;20.52;63.15
25420;BME280;13354;48.174;11.566;2023-09-19T08:38:50;95705.97;;;21.28;62.09
25420;BME280;13354;48.174;11.566;2023-09-19T08:41:17;95702.50;;;21.75;59.81
25420;BME280;13354;48.174;11.566;2023-09-19T08:43:42;95693.63;;;21.80;59.04
25420;BME280;13354;48.174;11.566;2023-09-19T08:46:14;95702.22;;;22.24;58.02
25420;BME280;13354;48.174;11.566;2023-09-19T08:48:46;95698.53;;;22.51;56.72
25420;BME280;13354;48.174;11.566;2023-09-19T08:51:18;95700.97;;;22.78;55.79
25420;BME280;13354;48.174;11.566;2023-09-19T08:56:17;95696.13;;;22.90;55.22
25420;BME280;13354;48.174;11.566;2023-09-19T08:58:59;95693.75;;;22.99;54.45
25420;BME280;13354;48.174;11.566;2023-09-19T09:01:28;95698.56;;;23.37;54.16
25420;BME280;13354;48.174;11.566;2023-09-19T09:03:55;95691.00;;;23.50;53.73
25420;BME280;13354;48.174;11.566;2023-09-19T09:06:22;95708.03;;;23.20;54.40
25420;BME280;13354;48.174;11.566;2023-09-19T09:08:50;95712.84;;;22.82;54.81
25420;BME280;13354;48.174;11.566;2023-09-19T09:11:15;95717.94;;;22.48;55.62
25420;BME280;13354;48.174;11.566;2023-09-19T09:13:43;95724.34;;;22.31;56.05
25420;BME280;13354;48.174;11.566;2023-09-19T09:16:09;95717.31;;;22.25;54.76
25420;BME280;13354;48.174;11.566;2023-09-19T09:18:35;95708.63;;;22.13;55.31
25420;BME280;13354;48.174;11.566;2023-09-19T09:21:01;95717.38;;;22.35;54.95
25420;BME280;13354;48.174;11.566;2023-09-19T09:23:27;95711.53;;;22.79;54.31
25420;BME280;13354;48.174;11.566;2023-09-19T09:25:58;95713.13;;;22.85;53.93
25420;BME280;13354;48.174;11.566;2023-09-19T09:28:34;95707.22;;;22.83;52.74
25420;BME280;13354;48.174;11.566;2023-09-19T09:31:02;95704.75;;;22.72;53.30
25420;BME280;13354;48.174;11.566;2023-09-19T09:33:34;95707.13;;;22.48;54.14
25420;BME280;13354;48.174;11.566;2023-09-19T09:36:01;95701.84;;;23.04;53.36
25420;BME280;13354;48.174;11.566;2023-09-19T09:38:29;95699.91;;;22.69;53.48
25420;BME280;13354;48.174;11.566;2023-09-19T09:40:59;95712.31;;;22.75;53.76
25420;BME280;13354;48.174;11.566;2023-09-19T09:43:38;95707.53;;;23.12;53.09
25420;BME280;13354;48.174;11.566;2023-09-19T09:49:04;95711.78;;;22.78;52.94
25420;BME280;13354;48.174;11.566;2023-09-19T09:52:03;95711.47;;;22.54;52.92
25420;BME280;13354;48.174;11.566;2023-09-19T09:54:33;95722.63;;;22.10;53.54
25420;BME280;13354;48.174;11.566;2023-09-19T09:57:08;95709.84;;;21.85;54.10
25420;BME280;13354;48.174;11.566;2023-09-19T09:59:58;95721.00;;;21.56;55.32
25420;BME280;13354;48.174;11.566;2023-09-19T10:02:40;95711.16;;;21.35;55.36
25420;BME280;13354;48.174;11.566;2023-09-19T10:05:17;95719.28;;;21.40;55.69
25420;BME280;13354;48.174;11.566;2023-09-19T10:07:46;95706.59;;;21.83;54.46
25420;BME280;13354;48.174;11.566;2023-09-19T10:10:33;95707.91;;;22.28;53.92
25420;BME280;13354;48.174;11.566;2023-09-19T10:13:09;95711.72;;;22.52;52.19
25420;BME280;13354;48.174;11.566;2023-09-19T10:15:39;95716.03;;;22.43;52.14
25420;BME280;13354;48.174;11.566;2023-09-19T10:18:10;95722.56;;;22.62;50.79
25420;BME280;13354;48.174;11.566;2023-09-19T10:20:39;95716.59;;;22.55;51.61
25420;BME280;13354;48.174;11.566;2023-09-19T10:23:08;95721.22;;;22.85;51.01
25420;BME280;13354;48.174;11.566;2023-09-19T10:25:39;95712.09;;;22.92;51.16
25420;BME280;13354;48.174;11.566;2023-09-19T10:28:10;95729.09;;;22.92;51.23
25420;BME280;13354;48.174;11.566;2023-09-19T10:30:46;95727.16;;;22.82;51.45
25420;BME280;13354;48.174;11.566;2023-09-19T10:33:14;95718.56;;;23.01;50.07
25420;BME280;13354;48.174;11.566;2023-09-19T10:35:42;95724.69;;;22.60;50.28
25420;BME280;13354;48.174;11.566;2023-09-19T10:38:13;95732.50;;;22.57;50.43
25420;BME280;13354;48.174;11.566;2023-09-19T10:40:39;95736.34;;;22.86;50.08
25420;BME280;13354;48.174;11.566;2023-09-19T10:43:15;95717.22;;;22.93;50.18
25420;BME280;13354;48.174;11.566;2023-09-19T10:45:44;95716.13;;;22.84;50.59
25420;BME280;13354;48.174;11.566;2023-09-19T10:48:09;95724.72;;;22.71;50.83
25420;BME280;13354;48.174;11.566;2023-09-19T10:51:11;95717.22;;;23.19;50.46
25420;BME280;13354;48.174;11.566;2023-09-19T10:53:54;95716.66;;;23.52;49.64
25420;BME280;13354;48.174;11.566;2023-09-19T10:56:31;95711.16;;;23.98;49.20
25420;BME280;13354;48.174;11.566;2023-09-19T10:59:15;95721.97;;;24.68;48.07
25420;BME280;13354;48.174;11.566;2023-09-19T11:01:54;95712.75;;;24.69;47.10
25420;BME280;13354;48.174;11.566;2023-09-19T11:04:33;95715.88;;;24.87;46.63
25420;BME280;13354;48.174;11.566;2023-09-19T11:07:06;95713.94;;;25.32;45.42
25420;BME280;13354;48.174;11.566;2023-09-19T11:09:53;95723.16;;;25.30;44.42
25420;BME280;13354;48.174;11.566;2023-09-19T11:14:58;95716.09;;;25.88;43.98
25420;BME280;13354;48.174;11.566;2023-09-19T11:17:36;95706.03;;;25.93;43.64
25420;BME280;13354;48.174;11.566;2023-09-19T11:33:17;95707.75;;;23.47;45.30
25420;BME280;13354;48.174;11.566;2023-09-19T11:36:13;95710.22;;;23.12;46.39
25420;BME280;13354;48.174;11.566;2023-09-19T11:46:26;95701.19;;;24.53;44.46
25420;BME280;13354;48.174;11.566;2023-09-19T11:48:53;95704.22;;;24.37;43.48
25420;BME280;13354;48.174;11.566;2023-09-19T11:51:19;95703.88;;;23.99;43.59
25420;BME280;13354;48.174;11.566;2023-09-19T11:53:49;95707.66;;;23.93;44.25
25420;BME280;13354;48.174;11.566;2023-09-19T11:56:19;95710.72;;;23.60;44.39
25420;BME280;13354;48.174;11.566;2023-09-19T11:58:46;95713.72;;;23.13;45.31
25420;BME280;13354;48.174;11.566;2023-09-19T12:01:22;95709.41;;;23.17;45.52
25420;BME280;13354;48.174;11.566;2023-09-19T12:03:52;95700.69;;;23.76;45.05
25420;BME280;13354;48.174;11.566;2023-09-19T12:06:19;95701.84;;;24.25;44.63
25420;BME280;13354;48.174;11.566;2023-09-19T12:08:47;95702.91;;;24.39;44.67
25420;BME280;13354;48.174;11.566;2023-09-19T12:11:14;95702.34;;;24.42;44.94
25420;BME280;13354;48.174;11.566;2023-09-19T12:13:47;95697.75;;;24.38;44.66
25420;BME280;13354;48.174;11.566;2023-09-19T12:16:18;95704.00;;;24.77;44.48
25420;BME280;13354;48.174;11.566;2023-09-19T12:18:47;95693.78;;;24.74;44.31
25420;BME280;13354;48.174;11.566;2023-09-19T12:21:32;95700.69;;;24.46;44.71
25420;BME280;13354;48.174;11.566;2023-09-19T12:24:12;95695.78;;;24.53;44.36
25420;BME280;13354;48.174;11.566;2023-09-19T12:26:45;95697.91;;;24.62;44.49
25420;BME280;13354;48.174;11.566;2023-09-19T12:29:16;95691.63;;;25.05;42.46
25420;BME280;13354;48.174;11.566;2023-09-19T12:31:52;95690.47;;;24.77;42.37
25420;BME280;13354;48.174;11.566;2023-09-19T12:34:23;95689.09;;;24.35;43.08
25420;BME280;13354;48.174;11.566;2023-09-19T12:37:15;95693.88;;;23.89;44.31
25420;BME280;13354;48.174;11.566;2023-09-19T12:39:46;95690.44;;;24.33;43.64
25420;BME280;13354;48.174;11.566;2023-09-19T12:42:17;95697.28;;;24.15;44.28
25420;BME280;13354;48.174;11.566;2023-09-19T12:44:45;95684.19;;;23.78;45.27
25420;BME280;13354;48.174;11.566;2023-09-19T12:47:15;95689.94;;;23.46;45.81
25420;BME280;13354;48.174;11.566;2023-09-19T12:50:06;95694.28;;;23.11;46.68
25420;BME280;13354;48.174;11.566;2023-09-19T12:52:37;95690.75;;;22.80;47.62
25420;BME280;13354;48.174;11.566;2023-09-19T12:55:02;95690.47;;;22.76;47.11
25420;BME280;13354;48.174;11.566;2023-09-19T12:57:28;95686.41;;;22.74;47.96
25420;BME280;13354;48.174;11.566;2023-09-19T12:59:54;95696.09;;;22.59;49.72
25420;BME280;13354;48.174;11.566;2023-09-19T13:02:20;95699.06;;;22.48;51.87
25420;BME280;13354;48.174;11.566;2023-09-19T13:04:55;95695.25;;;22.49;52.45
25420;BME280;13354;48.174;11.566;2023-09-19T13:07:41;95698.78;;;22.44;52.90
25420;BME280;13354;48.174;11.566;2023-09-19T13:12:37;95696.91;;;22.55;53.69
25420;BME280;13354;48.174;11.566;2023-09-19T13:15:10;95686.97;;;22.91;52.74
25420;BME280;13354;48.174;11.566;2023-09-19T13:17:48;95687.50;;;23.29;51.36
25420;BME280;13354;48.174;11.566;2023-09-19T13:20:26;95673.44;;;23.68;50.70
25420;BME280;13354;48.174;11.566;2023-09-19T13:22:57;95672.75;;;24.01;49.77
25420;BME280;13354;48.174;11.566;2023-09-19T13:25:33;95670.00;;;24.11;49.69
25420;BME280;13354;48.174;11.566;2023-09-19T13:28:00;95668.75;;;24.48;48.94
25420;BME280;13354;48.174;11.566;2023-09-19T13:30:29;95665.22;;;24.48;47.81
25420;BME280;13354;48.174;11.566;2023-09-19T13:35:32;95663.41;;;24.77;47.62
25420;BME280;13354;48.174;11.566;2023-09-19T13:37:58;95648.66;;;24.94;47.28
25420;BME280;13354;48.174;11.566;2023-09-19T13:40:23;95656.97;;;25.08;46.74
25420;BME280;13354;48.174;11.566;2023-09-19T13:42:49;95661.03;;;25.05;47.34
25420;BME280;13354;48.174;11.566;2023-09-19T13:45:18;95656.63;;;25.14;46.95